createdAt,value
2018-05-24T00:00:48.970Z,2.57
2018-05-24T00:03:18.091Z,2.97
2018-05-24T00:05:46.457Z,2.83
2018-05-24T00:08:14.761Z,2.97
2018-05-24T00:10:43.148Z,2.63
2018-05-24T00:13:11.432Z,2.43
2018-05-24T00:15:39.711Z,2.60
2018-05-24T00:18:08.813Z,2.10
2018-05-24T00:20:37.885Z,2.30
2018-05-24T00:23:06.290Z,2.40
2018-05-24T00:25:35.327Z,2.50
2018-05-24T00:28:03.621Z,2.97
2018-05-24T00:30:31.937Z,2.20
2018-05-24T00:33:00.248Z,1.90
2018-05-24T00:35:29.406Z,2.60
2018-05-24T00:37:57.700Z,1.90
2018-05-24T00:40:26.798Z,2.80
2018-05-24T00:42:55.889Z,2.47
2018-05-24T00:45:24.985Z,1.90
2018-05-24T00:47:54.133Z,2.10
2018-05-24T00:50:22.537Z,2.20
2018-05-24T00:52:51.653Z,2.40
2018-05-24T00:55:32.476Z,2.10
2018-05-24T00:58:01.616Z,2.67
2018-05-24T01:00:30.693Z,2.50
2018-05-24T01:02:58.986Z,2.13
2018-05-24T01:05:27.325Z,1.80
2018-05-24T01:07:55.682Z,1.67
2018-05-24T01:10:24.810Z,2.57
2018-05-24T01:12:53.113Z,1.90
2018-05-24T01:15:22.220Z,2.50
2018-05-24T01:17:50.575Z,2.97
2018-05-24T01:20:18.926Z,3.03
2018-05-24T01:22:47.236Z,2.70
2018-05-24T01:25:15.601Z,2.40
2018-05-24T01:27:43.902Z,2.67
2018-05-24T01:30:12.200Z,2.67
2018-05-24T01:32:41.314Z,3.27
2018-05-24T01:35:09.609Z,2.60
2018-05-24T01:37:50.649Z,2.80
2018-05-24T01:40:19.703Z,3.00
2018-05-24T01:42:48.030Z,3.20
2018-05-24T01:45:17.173Z,2.77
2018-05-24T01:47:45.464Z,3.00
2018-05-24T01:50:13.826Z,3.30
2018-05-24T01:52:43.040Z,3.53
2018-05-24T01:55:11.346Z,3.27
2018-05-24T01:57:40.395Z,3.30
2018-05-24T02:00:08.707Z,3.97
2018-05-24T02:02:37.197Z,3.43
2018-05-24T02:05:05.476Z,4.13
2018-05-24T02:07:33.770Z,4.03
2018-05-24T02:10:02.847Z,5.17
2018-05-24T02:12:31.157Z,4.77
2018-05-24T02:14:59.495Z,5.20
2018-05-24T02:17:27.808Z,5.50
2018-05-24T02:19:56.872Z,5.73
2018-05-24T02:22:25.183Z,4.90
2018-05-24T02:24:54.241Z,6.17
2018-05-24T02:27:23.306Z,5.30
2018-05-24T02:29:51.618Z,5.10
2018-05-24T02:32:19.961Z,5.77
2018-05-24T02:34:48.248Z,5.30
2018-05-24T02:37:16.593Z,5.60
2018-05-24T02:39:44.913Z,5.90
2018-05-24T02:42:13.241Z,5.67
2018-05-24T02:44:42.300Z,6.03
2018-05-24T02:47:10.591Z,5.03
2018-05-24T02:49:38.873Z,5.70
2018-05-24T02:52:07.216Z,6.00
2018-05-24T02:54:35.518Z,6.00
2018-05-24T02:57:03.812Z,5.60
2018-05-24T02:59:32.894Z,6.00
2018-05-24T03:02:01.285Z,5.83
2018-05-24T03:04:29.572Z,5.60
2018-05-24T03:06:58.642Z,5.27
2018-05-24T03:09:27.045Z,5.70
2018-05-24T03:11:56.123Z,5.70
2018-05-24T03:14:24.503Z,5.90
2018-05-24T03:16:52.770Z,5.53
2018-05-24T03:19:21.882Z,5.20
2018-05-24T03:21:50.182Z,5.77
2018-05-24T03:24:19.256Z,5.27
2018-05-24T03:26:47.608Z,6.23
2018-05-24T03:29:15.913Z,5.27
2018-05-24T03:31:44.207Z,4.97
2018-05-24T03:34:13.270Z,7.03
2018-05-24T03:36:42.324Z,6.63
2018-05-24T03:39:10.725Z,5.83
2018-05-24T03:41:39.038Z,5.30
2018-05-24T03:44:08.243Z,4.80
2018-05-24T03:46:36.786Z,6.03
2018-05-24T03:49:05.192Z,5.27
2018-05-24T03:51:34.985Z,6.17
2018-05-24T03:54:03.398Z,5.63
2018-05-24T03:56:32.506Z,5.10
2018-05-24T04:02:26.754Z,5.03
2018-05-24T04:04:57.127Z,5.37
2018-05-24T04:07:26.255Z,5.70
2018-05-24T04:09:55.440Z,4.70
2018-05-24T04:12:24.544Z,4.97
2018-05-24T04:14:53.645Z,5.13
2018-05-24T04:17:22.088Z,5.40
2018-05-24T04:19:50.405Z,5.07
2018-05-24T04:22:18.694Z,5.20
2018-05-24T04:24:47.049Z,6.60
2018-05-24T04:27:16.140Z,7.80
2018-05-24T04:29:45.221Z,6.63
2018-05-24T04:32:14.324Z,5.90
2018-05-24T04:34:43.472Z,5.83
2018-05-24T04:37:11.909Z,6.30
2018-05-24T04:39:41.234Z,7.50
2018-05-24T04:42:09.650Z,7.63
2018-05-24T04:44:38.111Z,8.47
2018-05-24T04:47:06.426Z,6.57
2018-05-24T04:49:36.357Z,6.33
2018-05-24T04:52:05.487Z,5.50
2018-05-24T04:54:34.531Z,7.30
2018-05-24T04:57:03.658Z,7.70
2018-05-24T04:59:32.850Z,7.40
2018-05-24T05:02:01.988Z,7.47
2018-05-24T05:04:30.290Z,7.90
2018-05-24T05:06:58.596Z,8.20
2018-05-24T05:09:27.780Z,8.27
2018-05-24T05:11:57.613Z,8.50
2018-05-24T05:14:26.861Z,9.10
2018-05-24T05:16:55.196Z,8.07
2018-05-24T05:19:24.653Z,7.80
2018-05-24T05:21:53.709Z,9.13
2018-05-24T05:24:22.185Z,8.67
2018-05-24T05:26:51.368Z,8.70
2018-05-24T05:29:20.488Z,7.50
2018-05-24T05:31:49.677Z,8.90
2018-05-24T05:34:18.863Z,8.73
2018-05-24T05:36:47.942Z,8.23
2018-05-24T05:39:16.410Z,8.27
2018-05-24T05:41:44.837Z,9.13
2018-05-24T05:44:13.316Z,9.40
2018-05-24T05:46:42.415Z,9.90
2018-05-24T05:49:11.475Z,9.67
2018-05-24T05:51:39.844Z,9.40
2018-05-24T05:54:08.201Z,10.87
2018-05-24T05:56:36.631Z,9.27
2018-05-24T05:59:05.745Z,10.80
2018-05-24T06:01:34.139Z,9.50
2018-05-24T06:04:03.293Z,9.33
2018-05-24T06:06:31.645Z,8.43
2018-05-24T06:08:59.947Z,8.60
2018-05-24T06:11:28.271Z,7.97
2018-05-24T06:13:56.712Z,7.70
2018-05-24T06:16:25.007Z,7.83
2018-05-24T06:18:54.071Z,8.70
2018-05-24T06:21:23.215Z,8.93
2018-05-24T06:23:52.306Z,9.93
2018-05-24T06:26:21.390Z,10.00
2018-05-24T06:28:50.729Z,9.03
2018-05-24T06:31:19.674Z,8.07
2018-05-24T06:33:48.012Z,7.00
2018-05-24T06:36:16.414Z,7.10
2018-05-24T06:38:44.699Z,6.50
2018-05-24T06:41:13.980Z,7.73
2018-05-24T06:43:43.097Z,5.83
2018-05-24T06:46:12.920Z,5.60
2018-05-24T06:48:41.239Z,6.53
2018-05-24T06:51:09.574Z,5.83
2018-05-24T06:53:37.985Z,5.80
2018-05-24T06:56:06.276Z,6.30
2018-05-24T06:58:34.681Z,5.60
2018-05-24T07:01:02.995Z,6.00
2018-05-24T07:03:32.131Z,6.67
2018-05-24T07:06:00.496Z,6.63
2018-05-24T07:08:28.758Z,6.73
2018-05-24T07:10:57.894Z,7.57
2018-05-24T07:13:26.222Z,7.77
2018-05-24T07:15:54.541Z,7.43
2018-05-24T07:18:22.851Z,7.80
2018-05-24T07:20:51.166Z,8.27
2018-05-24T07:23:20.291Z,7.90
2018-05-24T07:25:49.389Z,7.97
2018-05-24T07:28:17.709Z,9.60
2018-05-24T07:30:46.008Z,8.73
2018-05-24T07:33:14.296Z,8.33
2018-05-24T07:35:43.423Z,8.10
2018-05-24T07:38:11.759Z,9.10
2018-05-24T07:40:40.968Z,8.13
2018-05-24T07:43:10.041Z,8.97
2018-05-24T07:45:38.395Z,9.00
2018-05-24T07:48:06.743Z,9.47
2018-05-24T07:50:35.057Z,8.57
2018-05-24T07:53:03.458Z,8.70
2018-05-24T07:55:31.818Z,9.80
2018-05-24T07:58:00.110Z,7.43
2018-05-24T08:00:28.428Z,8.33
2018-05-24T08:02:56.775Z,8.10
2018-05-24T08:05:25.148Z,8.40
2018-05-24T08:07:53.457Z,7.70
2018-05-24T08:10:22.549Z,7.73
2018-05-24T08:12:51.635Z,6.90
2018-05-24T08:15:20.701Z,7.10
2018-05-24T08:17:49.138Z,6.40
2018-05-24T08:20:17.423Z,6.13
2018-05-24T08:22:46.628Z,6.83
2018-05-24T08:25:14.968Z,6.00
2018-05-24T08:27:43.292Z,6.53
2018-05-24T08:30:11.682Z,6.77
2018-05-24T08:32:40.004Z,6.67
2018-05-24T08:35:09.175Z,6.37
2018-05-24T08:37:37.457Z,5.87
2018-05-24T08:40:05.758Z,6.87
2018-05-24T08:42:34.905Z,6.40
2018-05-24T08:45:03.981Z,6.90
2018-05-24T08:47:32.364Z,8.33
2018-05-24T08:50:00.809Z,7.40
2018-05-24T08:52:29.932Z,7.47
2018-05-24T08:54:58.282Z,7.70
2018-05-24T08:57:26.582Z,6.90
2018-05-24T08:59:55.820Z,6.80
2018-05-24T09:02:24.174Z,8.10
2018-05-24T09:04:52.488Z,7.27
2018-05-24T09:07:20.854Z,6.93
2018-05-24T09:09:49.193Z,8.80
2018-05-24T09:12:18.338Z,7.83
2018-05-24T09:14:46.848Z,8.10
2018-05-24T09:17:15.303Z,8.87
2018-05-24T09:19:43.651Z,8.57
2018-05-24T09:22:12.057Z,8.63
2018-05-24T09:24:40.409Z,9.57
2018-05-24T09:27:08.876Z,9.67
2018-05-24T09:29:37.288Z,8.70
2018-05-24T09:32:05.727Z,9.17
2018-05-24T09:34:34.907Z,9.00
2018-05-24T09:37:04.028Z,8.30
2018-05-24T09:39:33.141Z,9.23
2018-05-24T09:42:01.577Z,8.20
2018-05-24T09:44:29.884Z,8.03
2018-05-24T09:46:59.009Z,10.30
2018-05-24T09:49:27.455Z,7.70
2018-05-24T09:51:56.570Z,7.50
2018-05-24T09:54:24.966Z,7.80
2018-05-24T09:56:53.357Z,7.97
2018-05-24T09:59:22.206Z,8.60
2018-05-24T10:01:50.602Z,9.97
2018-05-24T10:04:18.931Z,9.87
2018-05-24T10:06:47.323Z,9.17
2018-05-24T10:09:15.960Z,9.47
2018-05-24T10:11:44.393Z,11.00
2018-05-24T10:14:12.782Z,10.60
2018-05-24T10:16:41.882Z,11.47
2018-05-24T10:21:42.299Z,11.03
2018-05-24T10:24:10.668Z,9.00
2018-05-24T10:26:39.101Z,8.80
2018-05-24T10:29:08.488Z,9.93
2018-05-24T10:31:37.697Z,10.20
2018-05-24T10:34:07.036Z,12.07
2018-05-24T10:36:36.418Z,12.47
2018-05-24T10:39:07.151Z,13.03
2018-05-24T10:41:35.504Z,13.23
2018-05-24T10:44:04.603Z,14.30
2018-05-24T10:46:33.820Z,14.53
2018-05-24T10:49:02.300Z,14.60
2018-05-24T10:51:30.783Z,15.33
2018-05-24T10:53:59.942Z,18.20
2018-05-24T10:56:28.288Z,16.20
2018-05-24T10:58:56.733Z,15.77
2018-05-24T11:01:25.144Z,16.33
2018-05-24T11:03:53.605Z,17.27
2018-05-24T11:06:22.059Z,15.40
2018-05-24T11:08:50.389Z,10.33
2018-05-24T11:11:18.737Z,12.63
2018-05-24T11:13:47.860Z,11.77
2018-05-24T11:16:16.257Z,10.13
2018-05-24T11:18:44.597Z,10.50
2018-05-24T11:21:13.804Z,8.80
2018-05-24T11:23:42.149Z,8.77
2018-05-24T11:26:11.250Z,8.37
2018-05-24T11:28:40.388Z,11.30
2018-05-24T11:31:08.791Z,13.27
2018-05-24T11:33:38.709Z,14.00
2018-05-24T11:36:07.142Z,16.07
2018-05-24T11:38:36.311Z,18.50
2018-05-24T11:41:05.027Z,20.10
2018-05-24T11:43:34.149Z,22.03
2018-05-24T11:46:02.581Z,26.97
2018-05-24T11:48:31.790Z,26.83
2018-05-24T11:51:01.231Z,26.50
2018-05-24T11:53:29.640Z,28.50
2018-05-24T11:55:58.011Z,29.03
2018-05-24T11:58:27.202Z,29.93
2018-05-24T12:00:55.737Z,28.17
2018-05-24T12:03:24.938Z,28.40
2018-05-24T12:05:54.228Z,29.53
2018-05-24T12:08:22.732Z,29.50
2018-05-24T12:10:51.936Z,28.50
2018-05-24T12:13:21.053Z,28.40
2018-05-24T12:15:49.794Z,30.90
2018-05-24T12:18:18.974Z,28.80
2018-05-24T12:20:47.679Z,30.50
2018-05-24T12:23:16.088Z,26.47
2018-05-24T12:25:44.487Z,26.00
2018-05-24T12:28:12.828Z,25.90
2018-05-24T12:30:41.976Z,25.40
2018-05-24T12:33:10.313Z,26.17
2018-05-24T12:35:39.508Z,24.50
2018-05-24T12:38:08.689Z,26.43
2018-05-24T12:40:37.800Z,26.80
2018-05-24T12:43:06.952Z,26.33
2018-05-24T12:45:35.304Z,25.27
2018-05-24T12:48:04.462Z,26.30
2018-05-24T12:50:33.620Z,26.63
2018-05-24T12:53:02.119Z,26.43
2018-05-24T12:55:30.508Z,28.57
2018-05-24T12:57:58.898Z,29.20
2018-05-24T13:00:28.077Z,30.10
2018-05-24T13:02:56.430Z,33.17
2018-05-24T13:05:25.594Z,29.67
2018-05-24T13:07:53.937Z,30.70
2018-05-24T13:10:22.334Z,31.30
2018-05-24T13:12:51.480Z,31.30
2018-05-24T13:15:19.938Z,34.00
2018-05-24T13:17:48.314Z,32.33
2018-05-24T13:20:16.664Z,34.30
2018-05-24T13:22:45.087Z,33.73
2018-05-24T13:25:13.413Z,31.87
2018-05-24T13:27:41.763Z,31.70
2018-05-24T13:30:10.188Z,30.50
2018-05-24T13:32:38.579Z,29.23
2018-05-24T13:35:07.756Z,29.70
2018-05-24T13:37:36.170Z,31.33
2018-05-24T13:40:04.680Z,29.00
2018-05-24T13:42:33.035Z,28.37
2018-05-24T13:45:01.426Z,28.90
2018-05-24T13:47:29.913Z,29.80
2018-05-24T13:49:58.268Z,30.00
2018-05-24T13:52:27.679Z,28.90
2018-05-24T13:54:56.811Z,27.53
2018-05-24T13:57:36.962Z,27.80
2018-05-24T14:00:05.458Z,31.50
2018-05-24T14:02:33.818Z,34.10
2018-05-24T14:05:03.240Z,30.97
2018-05-24T14:07:31.613Z,32.80
2018-05-24T14:10:00.769Z,32.97
2018-05-24T14:12:29.956Z,34.97
2018-05-24T14:14:59.091Z,33.03
2018-05-24T14:17:27.452Z,33.27
2018-05-24T14:19:55.790Z,30.43
2018-05-24T14:22:25.064Z,30.40
2018-05-24T14:24:54.285Z,30.70
2018-05-24T14:27:22.630Z,29.87
2018-05-24T14:29:50.981Z,26.30
2018-05-24T14:32:20.127Z,25.30
2018-05-24T14:34:48.527Z,25.33
2018-05-24T14:37:16.988Z,25.57
2018-05-24T14:39:45.423Z,26.87
2018-05-24T14:42:14.593Z,27.40
2018-05-24T14:44:43.685Z,28.37
2018-05-24T14:47:12.788Z,28.40
2018-05-24T14:49:41.938Z,27.00
2018-05-24T14:52:10.386Z,28.63
2018-05-24T14:54:38.782Z,26.73
2018-05-24T14:57:07.198Z,28.57
2018-05-24T14:59:35.561Z,29.23
2018-05-24T15:02:03.956Z,27.60
2018-05-24T15:04:33.048Z,28.30
2018-05-24T15:07:01.552Z,28.80
2018-05-24T15:09:30.959Z,27.50
2018-05-24T15:11:59.332Z,28.10
2018-05-24T15:14:27.804Z,30.20
2018-05-24T15:16:56.176Z,33.17
2018-05-24T15:19:25.328Z,32.93
2018-05-24T15:21:53.691Z,32.23
2018-05-24T15:24:22.878Z,30.87
2018-05-24T15:26:52.099Z,31.10
2018-05-24T15:29:20.509Z,32.90
2018-05-24T15:31:48.914Z,35.37
2018-05-24T15:34:18.094Z,33.53
2018-05-24T15:36:46.526Z,34.87
2018-05-24T15:39:16.580Z,33.67
2018-05-24T15:41:44.915Z,35.10
2018-05-24T15:44:14.089Z,34.60
2018-05-24T15:46:42.456Z,34.73
2018-05-24T15:49:11.654Z,35.43
2018-05-24T15:51:40.008Z,34.67
2018-05-24T15:54:08.439Z,34.40
2018-05-24T15:56:36.858Z,35.77
2018-05-24T15:59:05.998Z,35.43
2018-05-24T16:01:34.354Z,37.43
2018-05-24T16:04:02.727Z,36.70
2018-05-24T16:06:31.106Z,34.33
2018-05-24T16:08:59.595Z,36.27
2018-05-24T16:11:28.823Z,36.30
2018-05-24T16:13:57.235Z,35.60
2018-05-24T16:16:26.376Z,35.00
2018-05-24T16:18:54.732Z,37.93
2018-05-24T16:21:23.094Z,31.90
2018-05-24T16:23:52.200Z,33.03
2018-05-24T16:26:20.575Z,31.63
2018-05-24T16:28:49.653Z,31.40
2018-05-24T16:31:17.999Z,33.47
2018-05-24T16:33:46.441Z,29.97
2018-05-24T16:36:14.748Z,33.03
2018-05-24T16:38:43.075Z,33.80
2018-05-24T16:41:11.400Z,32.20
2018-05-24T16:43:39.809Z,32.50
2018-05-24T16:46:08.400Z,31.60
2018-05-24T16:48:37.570Z,30.90
2018-05-24T16:51:05.872Z,32.47
2018-05-24T16:53:34.260Z,29.90
2018-05-24T16:56:02.667Z,31.00
2018-05-24T16:58:31.786Z,30.73
2018-05-24T17:01:00.107Z,34.70
2018-05-24T17:03:29.216Z,33.43
2018-05-24T17:05:59.262Z,34.33
2018-05-24T17:08:28.407Z,33.83
2018-05-24T17:10:56.715Z,34.87
2018-05-24T17:13:25.059Z,36.93
2018-05-24T17:15:53.490Z,33.33
2018-05-24T17:18:22.685Z,35.30
2018-05-24T17:20:51.833Z,35.27
2018-05-24T17:23:20.213Z,35.93
2018-05-24T17:25:48.586Z,36.20
2018-05-24T17:28:17.084Z,35.80
2018-05-24T17:30:47.039Z,34.90
2018-05-24T17:33:16.254Z,36.00
2018-05-24T17:35:45.345Z,35.07
2018-05-24T17:38:14.656Z,37.27
2018-05-24T17:40:43.233Z,35.50
2018-05-24T17:43:12.423Z,35.40
2018-05-24T17:45:41.623Z,38.70
2018-05-24T17:48:10.708Z,37.40
2018-05-24T17:50:40.104Z,38.50
2018-05-24T17:53:09.937Z,37.03
2018-05-24T17:55:39.267Z,37.70
2018-05-24T17:58:07.685Z,38.43
2018-05-24T18:00:36.018Z,36.40
2018-05-24T18:03:04.393Z,37.80
2018-05-24T18:05:32.895Z,37.00
2018-05-24T18:08:01.385Z,37.77
2018-05-24T18:10:31.073Z,39.40
2018-05-24T18:13:00.139Z,40.27
2018-05-24T18:15:29.375Z,41.30
2018-05-24T18:17:57.854Z,36.87
2018-05-24T18:20:27.010Z,38.50
2018-05-24T18:22:56.455Z,41.33
2018-05-24T18:25:25.621Z,39.70
2018-05-24T18:27:54.883Z,38.70
2018-05-24T18:30:23.442Z,38.50
2018-05-24T18:32:53.966Z,40.43
2018-05-24T18:35:22.401Z,41.10
2018-05-24T18:37:50.953Z,40.00
2018-05-24T18:40:19.521Z,40.70
2018-05-24T18:42:47.860Z,40.60
2018-05-24T18:45:17.032Z,39.17
2018-05-24T18:47:46.271Z,40.77
2018-05-24T18:50:15.428Z,37.80
2018-05-24T18:52:43.866Z,37.30
2018-05-24T18:55:12.282Z,37.33
2018-05-24T18:57:40.731Z,36.30
2018-05-24T19:00:09.664Z,35.53
2018-05-24T19:02:38.014Z,36.20
2018-05-24T19:05:06.408Z,32.57
2018-05-24T19:07:34.763Z,34.97
2018-05-24T19:10:03.344Z,33.13
2018-05-24T19:12:31.995Z,33.47
2018-05-24T19:15:01.130Z,32.27
2018-05-24T19:17:29.498Z,30.53
2018-05-24T19:19:57.843Z,32.47
2018-05-24T19:22:26.959Z,31.90
2018-05-24T19:24:56.172Z,31.67
2018-05-24T19:27:24.621Z,31.50
2018-05-24T19:29:53.092Z,31.37
2018-05-24T19:32:21.450Z,29.37
2018-05-24T19:34:49.821Z,29.83
2018-05-24T19:37:18.927Z,30.23
2018-05-24T19:39:47.369Z,29.53
2018-05-24T19:42:16.555Z,28.73
2018-05-24T19:44:45.798Z,28.83
2018-05-24T19:47:14.946Z,29.00
2018-05-24T19:49:44.231Z,28.40
2018-05-24T19:52:13.854Z,28.27
2018-05-24T19:54:43.449Z,27.20
2018-05-24T19:57:12.661Z,27.63
2018-05-24T19:59:41.788Z,27.57
2018-05-24T20:02:10.908Z,28.83
2018-05-24T20:04:40.264Z,28.80
2018-05-24T20:07:09.508Z,27.73
2018-05-24T20:09:37.921Z,29.30
2018-05-24T20:12:06.320Z,29.80
2018-05-24T20:14:35.455Z,28.60
2018-05-24T20:17:03.907Z,29.40
2018-05-24T20:19:33.169Z,31.20
2018-05-24T20:22:01.537Z,27.37
2018-05-24T20:24:30.691Z,28.27
2018-05-24T20:26:59.142Z,29.87
2018-05-24T20:29:27.546Z,29.47
2018-05-24T20:31:56.028Z,29.70
2018-05-24T20:34:24.420Z,29.00
2018-05-24T20:36:53.579Z,29.37
2018-05-24T20:39:21.952Z,30.00
2018-05-24T20:41:51.957Z,29.60
2018-05-24T20:44:20.347Z,30.03
2018-05-24T20:46:48.813Z,31.50
2018-05-24T20:49:17.182Z,33.00
2018-05-24T20:51:45.617Z,31.60
2018-05-24T20:54:14.793Z,35.23
2018-05-24T20:56:43.191Z,37.23
2018-05-24T20:59:12.420Z,35.80
2018-05-24T21:01:41.539Z,37.57
2018-05-24T21:04:09.969Z,36.67
2018-05-24T21:06:39.130Z,34.90
2018-05-24T21:09:07.586Z,35.70
2018-05-24T21:11:35.987Z,37.43
2018-05-24T21:14:04.295Z,37.30
2018-05-24T21:16:33.457Z,36.40
2018-05-24T21:19:01.954Z,37.87
2018-05-24T21:21:30.304Z,38.07
2018-05-24T21:23:58.621Z,39.70
2018-05-24T21:26:26.984Z,38.80
2018-05-24T21:28:55.338Z,37.20
2018-05-24T21:31:23.818Z,39.23
2018-05-24T21:33:53.752Z,36.63
2018-05-24T21:36:22.156Z,33.93
2018-05-24T21:38:50.532Z,34.07
2018-05-24T21:41:19.014Z,30.70
2018-05-24T21:43:47.375Z,31.17
2018-05-24T21:46:15.721Z,32.07
2018-05-24T21:48:44.182Z,31.53
2018-05-24T21:51:13.314Z,32.30
2018-05-24T21:53:41.707Z,33.43
2018-05-24T21:56:10.824Z,34.10
2018-05-24T21:58:39.192Z,33.00
2018-05-24T22:01:08.297Z,34.10
2018-05-24T22:03:36.685Z,34.50
2018-05-24T22:06:05.089Z,33.43
2018-05-24T22:08:34.370Z,34.27
2018-05-24T22:11:02.815Z,36.47
2018-05-24T22:13:31.156Z,32.80
2018-05-24T22:16:00.260Z,35.90
2018-05-24T22:18:28.596Z,31.93
2018-05-24T22:20:57.808Z,35.33
2018-05-24T22:23:26.211Z,33.70
2018-05-24T22:25:55.372Z,33.93
2018-05-24T22:28:23.714Z,33.77
2018-05-24T22:30:52.066Z,33.20
2018-05-24T22:33:21.172Z,34.13
2018-05-24T22:35:49.535Z,32.87
2018-05-24T22:38:18.692Z,34.53
2018-05-24T22:40:47.102Z,32.43
2018-05-24T22:43:16.183Z,34.17
2018-05-24T22:45:44.513Z,33.90
2018-05-24T22:48:12.868Z,33.73
2018-05-24T22:50:42.005Z,33.80
2018-05-24T22:53:10.412Z,33.60
2018-05-24T22:55:38.758Z,34.07
2018-05-24T22:58:07.108Z,30.93
2018-05-24T23:00:36.298Z,31.70
2018-05-24T23:03:05.553Z,32.87
2018-05-24T23:05:33.868Z,28.70
2018-05-24T23:08:03.061Z,29.07
2018-05-24T23:10:31.381Z,29.67
2018-05-24T23:13:00.464Z,28.40
2018-05-24T23:15:28.877Z,27.03
2018-05-24T23:17:57.227Z,27.83
2018-05-24T23:20:25.578Z,29.47
2018-05-24T23:22:54.747Z,28.70
2018-05-24T23:25:23.048Z,31.20
2018-05-24T23:27:51.448Z,28.47
2018-05-24T23:30:20.548Z,27.50
2018-05-24T23:32:49.672Z,29.10
2018-05-24T23:35:17.956Z,28.00
2018-05-24T23:37:46.350Z,31.00
2018-05-24T23:40:14.663Z,27.87
2018-05-24T23:42:43.086Z,28.50
2018-05-24T23:45:12.210Z,28.70
2018-05-24T23:47:40.550Z,28.60
2018-05-24T23:50:08.926Z,29.90
2018-05-24T23:52:37.216Z,28.53
2018-05-24T23:55:05.625Z,28.27
2018-05-24T23:57:33.975Z,27.67
